Time;durP1;ratioP1;P1;durP2;ratioP2;P2;SDS_P1;SDS_P2;PMS_P1;PMS_P2;Temp;Humidity;BMP_temperature;BMP_pressure;BME280_temperature;BME280_humidity;BME280_pressure;Samples;Min_cycle;Max_cycle;Signal;HPM_P1;HPM_P2
2023/10/02 00:01:41;;;;;;;;;;;;;;;22.41;50.40;96450.28;10438928;28;1866;-54
2023/10/02 00:06:42;;;;;;;;;;;;;;;22.41;50.15;96439.72;10445580;28;1839;-53
2023/10/02 00:11:44;;;;;;;;;;;;;;;22.41;50.24;96439.72;10442613;28;2438;-54
2023/10/02 00:16:58;;;;;;;;;;;;;;;22.40;50.32;96438.13;10438233;28;1831;-53
2023/10/02 00:22:08;;;;;;;;;;;;;;;22.40;50.38;96438.13;10435019;28;2091;-55
2023/10/02 00:27:09;;;;;;;;;;;;;;;22.40;50.18;96434.72;10440978;28;1966;-56
2023/10/02 00:32:11;;;;;;;;;;;;;;;22.40;50.34;96432.84;10436339;28;2014;-55
2023/10/02 00:37:15;;;;;;;;;;;;;;;22.39;50.06;96436.56;10435329;28;2090;-53
2023/10/02 00:42:16;;;;;;;;;;;;;;;22.38;50.33;96437.59;10438917;28;4626;-55
2023/10/02 00:47:16;;;;;;;;;;;;;;;22.39;50.04;96431.28;10440418;28;1884;-56
2023/10/02 00:52:16;;;;;;;;;;;;;;;22.38;49.96;96429.69;10437395;28;1957;-57
2023/10/02 00:57:16;;;;;;;;;;;;;;;22.38;49.95;96437.59;10428331;28;2570;-52
2023/10/02 01:02:18;;;;;;;;;;;;;;;22.39;49.88;96430.47;10435897;28;2149;-57
2023/10/02 01:07:22;;;;;;;;;;;;;;;22.38;50.22;96431.56;10434436;28;1979;-54
2023/10/02 01:12:38;;;;;;;;;;;;;;;22.37;49.91;96428.13;10433428;28;1970;-56
2023/10/02 01:17:47;;;;;;;;;;;;;;;22.36;50.05;96420.47;10435372;28;2076;-54
2023/10/02 01:22:51;;;;;;;;;;;;;;;22.36;49.96;96431.03;10435808;28;2051;-54
2023/10/02 01:27:51;;;;;;;;;;;;;;;22.35;49.78;96419.66;10435962;28;2019;-53
2023/10/02 01:38:18;;;;;;;;;;;;;;;22.35;49.81;96417.03;10440341;28;1963;-54
2023/10/02 01:43:20;;;;;;;;;;;;;;;22.35;49.78;96413.59;10435663;28;4651;-56
2023/10/02 01:53:39;;;;;;;;;;;;;;;22.33;49.79;96413.88;10434960;28;2085;-50
2023/10/02 01:58:39;;;;;;;;;;;;;;;22.33;49.51;96416.50;10436658;28;1997;-54
2023/10/02 02:03:41;;;;;;;;;;;;;;;22.33;49.56;96408.59;10439706;28;1912;-55
2023/10/02 02:08:43;;;;;;;;;;;;;;;22.32;49.76;96407.00;10430962;28;2086;-54
2023/10/02 02:13:47;;;;;;;;;;;;;;;22.31;49.40;96405.41;10434686;28;2120;-55
2023/10/02 02:18:50;;;;;;;;;;;;;;;22.32;49.79;96399.06;10437639;28;1918;-54
2023/10/02 02:24:11;;;;;;;;;;;;;;;22.30;49.40;96401.19;10436665;28;1998;-55
2023/10/02 02:29:23;;;;;;;;;;;;;;;22.30;49.49;96406.47;10439924;28;2779;-54
2023/10/02 02:34:25;;;;;;;;;;;;;;;22.30;49.54;96401.19;10433120;28;2007;-52
2023/10/02 02:39:25;;;;;;;;;;;;;;;22.31;49.60;96405.41;10433402;28;1932;-54
2023/10/02 02:44:43;;;;;;;;;;;;;;;22.30;49.54;96398.53;10438181;28;1976;-56
2023/10/02 02:49:58;;;;;;;;;;;;;;;22.30;49.63;96393.25;10438658;28;1914;-56
2023/10/02 02:55:03;;;;;;;;;;;;;;;22.30;49.68;96401.19;10435740;28;1951;-56
2023/10/02 03:05:37;;;;;;;;;;;;;;;22.30;49.64;96400.38;10437630;28;1919;-54
2023/10/02 03:10:39;;;;;;;;;;;;;;;22.30;49.66;96397.75;10436691;28;1944;-56
2023/10/02 03:15:48;;;;;;;;;;;;;;;22.29;49.36;96402.25;10435344;28;1987;-55
2023/10/02 03:20:52;;;;;;;;;;;;;;;22.29;49.68;96401.47;10435593;28;2019;-54
2023/10/02 03:25:55;;;;;;;;;;;;;;;22.29;49.62;96393.53;10437620;28;2482;-55
2023/10/02 03:30:55;;;;;;;;;;;;;;;22.28;49.35;96399.88;10436392;28;2003;-55
2023/10/02 03:36:02;;;;;;;;;;;;;;;22.28;49.28;96398.03;10432925;28;2074;-52
2023/10/02 03:41:03;;;;;;;;;;;;;;;22.28;49.28;96402.50;10436164;28;4594;-55
2023/10/02 03:46:06;;;;;;;;;;;;;;;22.27;49.15;96391.16;10442687;28;1903;-56
2023/10/02 03:51:07;;;;;;;;;;;;;;;22.28;49.24;96394.56;10443585;28;1928;-52
2023/10/02 04:01:27;;;;;;;;;;;;;;;22.26;49.22;96384.28;10443607;28;2026;-55
2023/10/02 04:06:33;;;;;;;;;;;;;;;22.26;49.16;96379.00;10442906;28;2034;-55
2023/10/02 04:11:33;;;;;;;;;;;;;;;22.25;49.21;96380.09;10444441;28;2372;-56
2023/10/02 04:16:34;;;;;;;;;;;;;;;22.25;49.15;96384.56;10440732;28;1947;-54
2023/10/02 04:21:34;;;;;;;;;;;;;;;22.25;48.76;96389.84;10438356;28;1892;-54
2023/10/02 04:26:34;;;;;;;;;;;;;;;22.23;49.17;96387.50;10441234;28;2017;-54
2023/10/02 04:31:34;;;;;;;;;;;;;;;22.23;49.04;96390.13;10440641;28;1972;-55
2023/10/02 04:36:35;;;;;;;;;;;;;;;22.24;49.01;96393.53;10435761;28;2079;-55
2023/10/02 04:42:09;;;;;;;;;;;;;;;22.23;49.00;96389.31;10435863;28;4602;-57
2023/10/02 04:46:55;;;;;;;;;;;;;;;22.23;48.81;96390.13;10433110;28;1975;-52
2023/10/02 04:51:55;;;;;;;;;;;;;;;22.23;48.96;96394.59;10433692;28;1952;-56
2023/10/02 04:57:11;;;;;;;;;;;;;;;22.21;48.80;96397.53;10440310;28;2565;-55
2023/10/02 05:02:17;;;;;;;;;;;;;;;22.22;48.93;96396.44;10442035;28;1940;-55
2023/10/02 05:07:20;;;;;;;;;;;;;;;22.20;48.96;96390.66;10441313;28;1968;-55
2023/10/02 05:12:22;;;;;;;;;;;;;;;22.23;48.79;96394.59;10436042;28;1985;-57
2023/10/02 05:22:42;;;;;;;;;;;;;;;22.22;48.98;96406.22;10431753;28;1920;-57
2023/10/02 05:27:44;;;;;;;;;;;;;;;22.21;48.68;96410.72;10433112;28;1957;-55
2023/10/02 05:32:45;;;;;;;;;;;;;;;22.21;48.84;96407.28;10438239;28;1934;-55
2023/10/02 05:37:45;;;;;;;;;;;;;;;22.21;48.93;96410.72;10431706;28;1989;-55
2023/10/02 05:47:58;;;;;;;;;;;;;;;22.24;49.42;96417.31;10428319;28;2003;-56
2023/10/02 05:52:59;;;;;;;;;;;;;;;22.25;49.41;96418.91;10433631;28;2164;-61
2023/10/02 05:57:59;;;;;;;;;;;;;;;22.26;49.48;96423.09;10433037;28;2053;-56
2023/10/02 06:03:00;;;;;;;;;;;;;;;22.26;49.62;96425.75;10436482;28;1959;-57
2023/10/02 06:08:01;;;;;;;;;;;;;;;22.28;49.80;96434.19;10438826;28;2023;-57
2023/10/02 06:13:08;;;;;;;;;;;;;;;22.28;49.72;96435.00;10435607;28;2008;-56
2023/10/02 06:18:08;;;;;;;;;;;;;;;22.28;49.75;96434.19;10430086;28;1935;-57
2023/10/02 06:23:22;;;;;;;;;;;;;;;22.29;49.93;96439.22;10440741;28;1951;-54
2023/10/02 06:28:25;;;;;;;;;;;;;;;22.29;49.72;96449.00;10437442;28;2498;-56
2023/10/02 06:33:26;;;;;;;;;;;;;;;22.30;50.10;96456.66;10431182;28;2071;-55
2023/10/02 06:38:32;;;;;;;;;;;;;;;22.31;49.90;96450.31;10429904;28;1963;-56
2023/10/02 06:43:32;;;;;;;;;;;;;;;22.31;49.94;96460.09;10439215;28;2023;-55
2023/10/02 06:48:36;;;;;;;;;;;;;;;22.31;49.98;96455.59;10434798;28;1979;-54
2023/10/02 06:53:40;;;;;;;;;;;;;;;22.30;50.05;96448.72;10431906;28;1992;-54
2023/10/02 06:58:49;;;;;;;;;;;;;;;22.29;49.91;96447.16;10437572;28;1983;-55
2023/10/02 07:03:52;;;;;;;;;;;;;;;22.31;50.25;96455.59;10434331;28;2021;-54
2023/10/02 07:09:12;;;;;;;;;;;;;;;22.32;50.02;96462.44;10435760;28;2044;-55
2023/10/02 07:14:12;;;;;;;;;;;;;;;22.33;49.99;96461.41;10438082;28;2551;-56
2023/10/02 07:19:13;;;;;;;;;;;;;;;22.34;50.08;96459.56;10432890;28;1958;-54
2023/10/02 07:24:27;;;;;;;;;;;;;;;22.34;50.27;96460.34;10441164;28;1983;-57
2023/10/02 07:29:37;;;;;;;;;;;;;;;22.35;50.43;96461.94;10441997;28;2000;-55
2023/10/02 07:34:38;;;;;;;;;;;;;;;22.36;50.33;96460.09;10443790;28;1959;-56
2023/10/02 07:39:38;;;;;;;;;;;;;;;22.35;50.08;96461.94;10439163;28;1954;-58
2023/10/02 07:44:38;;;;;;;;;;;;;;;22.35;50.38;96461.13;10438318;28;4554;-57
2023/10/02 07:49:39;;;;;;;;;;;;;;;22.35;50.42;96461.94;10441901;28;1986;-57
2023/10/02 07:54:45;;;;;;;;;;;;;;;22.35;50.20;96456.66;10446283;28;1932;-56
2023/10/02 07:59:47;;;;;;;;;;;;;;;22.36;50.12;96463.50;10441757;28;2351;-55
2023/10/02 08:04:48;;;;;;;;;;;;;;;22.35;50.01;96464.56;10444857;28;2239;-57
2023/10/02 08:09:48;;;;;;;;;;;;;;;22.35;50.35;96467.22;10440980;28;2037;-53
2023/10/02 08:14:50;;;;;;;;;;;;;;;22.35;50.14;96466.41;10448247;28;1941;-56
2023/10/02 08:19:59;;;;;;;;;;;;;;;22.36;50.20;96468.00;10444532;28;1977;-55
2023/10/02 08:25:00;;;;;;;;;;;;;;;22.36;50.14;96468.00;10442615;28;1933;-57
2023/10/02 08:30:02;;;;;;;;;;;;;;;22.36;49.86;96463.50;10438380;28;1967;-57
2023/10/02 08:35:16;;;;;;;;;;;;;;;22.37;49.84;96467.75;10439213;28;1846;-54
2023/10/02 08:40:16;;;;;;;;;;;;;;;22.37;49.96;96473.03;10442028;28;4579;-56
2023/10/02 08:45:20;;;;;;;;;;;;;;;22.35;50.19;96461.94;10439518;28;2326;-56
2023/10/02 08:50:20;;;;;;;;;;;;;;;22.38;49.84;96463.25;10441969;28;1984;-54
2023/10/02 08:55:34;;;;;;;;;;;;;;;22.38;50.01;96453.47;10436930;28;1792;-55
2023/10/02 09:00:38;;;;;;;;;;;;;;;22.38;49.79;96458.75;10423645;28;2044;-55
2023/10/02 09:05:49;;;;;;;;;;;;;;;22.39;50.00;96462.97;10437141;28;1930;-55
2023/10/02 09:10:58;;;;;;;;;;;;;;;22.39;50.04;96452.41;10426418;28;1902;-55
2023/10/02 09:16:01;;;;;;;;;;;;;;;22.39;49.96;96447.13;10437050;28;1898;-55
2023/10/02 09:21:13;;;;;;;;;;;;;;;22.39;50.29;96439.19;10444269;28;1811;-54
2023/10/02 09:26:16;;;;;;;;;;;;;;;22.41;50.03;96446.84;10439487;28;1859;-56
2023/10/02 09:31:17;;;;;;;;;;;;;;;22.42;49.97;96440.53;10440561;28;2442;-55
2023/10/02 09:36:19;;;;;;;;;;;;;;;22.42;50.22;96437.88;10431055;28;1842;-55
2023/10/02 09:41:20;;;;;;;;;;;;;;;22.42;50.10;96436.00;10435074;28;1867;-53
2023/10/02 09:46:28;;;;;;;;;;;;;;;22.43;50.11;96434.97;10433741;28;2036;-54
2023/10/02 09:51:37;;;;;;;;;;;;;;;22.43;50.07;96432.31;10438009;28;1914;-55
2023/10/02 09:57:05;;;;;;;;;;;;;;;22.44;49.83;96422.56;10437762;28;2231;-53
2023/10/02 10:02:08;;;;;;;;;;;;;;;22.45;49.92;96430.19;10441076;28;1676;-54
2023/10/02 10:07:32;;;;;;;;;;;;;;;22.45;50.14;96422.28;10439101;28;1929;-54
2023/10/02 10:12:50;;;;;;;;;;;;;;;22.46;49.84;96423.84;10432203;28;1914;-56
2023/10/02 10:17:51;;;;;;;;;;;;;;;22.47;49.90;96422.81;10433849;28;2380;-55
2023/10/02 10:22:55;;;;;;;;;;;;;;;22.47;50.11;96422.81;10438709;28;1862;-55
2023/10/02 10:27:55;;;;;;;;;;;;;;;22.48;50.22;96413.03;10436209;28;2093;-54
2023/10/02 10:38:28;;;;;;;;;;;;;;;22.50;50.03;96410.91;10434838;28;1874;-56
2023/10/02 10:43:44;;;;;;;;;;;;;;;22.51;50.25;96407.19;10433341;28;4749;-53
2023/10/02 10:48:48;;;;;;;;;;;;;;;22.50;50.18;96395.81;10441921;28;1858;-55
2023/10/02 10:53:52;;;;;;;;;;;;;;;22.51;50.19;96389.50;10446581;28;1936;-53
2023/10/02 10:59:10;;;;;;;;;;;;;;;22.54;50.19;96398.75;10448417;28;1890;-53
2023/10/02 11:04:13;;;;;;;;;;;;;;;22.54;50.00;96391.59;10441638;28;2962;-54
2023/10/02 11:09:15;;;;;;;;;;;;;;;22.55;50.22;96381.81;10440102;28;1921;-54
2023/10/02 11:14:20;;;;;;;;;;;;;;;22.56;50.19;96373.63;10441297;28;1902;-55
2023/10/02 11:19:26;;;;;;;;;;;;;;;22.57;50.20;96375.19;10441608;28;1890;-52
2023/10/02 11:24:26;;;;;;;;;;;;;;;22.57;50.19;96359.34;10443352;28;1968;-53
2023/10/02 11:29:27;;;;;;;;;;;;;;;22.59;50.20;96361.75;10445693;28;1930;-54
2023/10/02 11:34:27;;;;;;;;;;;;;;;22.60;50.22;96358.06;10447250;28;1933;-55
2023/10/02 11:39:27;;;;;;;;;;;;;;;22.61;50.19;96343.75;10440060;28;1961;-55
2023/10/02 11:44:27;;;;;;;;;;;;;;;22.62;50.45;96345.34;10446572;28;4535;-53
2023/10/02 11:49:29;;;;;;;;;;;;;;;22.63;50.38;96336.34;10444572;28;2305;-54
2023/10/02 11:54:35;;;;;;;;;;;;;;;22.63;50.43;96334.50;10442764;28;1990;-55
2023/10/02 11:59:41;;;;;;;;;;;;;;;22.64;50.53;96322.88;10440272;28;2042;-54
2023/10/02 12:04:41;;;;;;;;;;;;;;;22.65;50.51;96324.47;10442496;28;2235;-54
2023/10/02 12:09:43;;;;;;;;;;;;;;;22.65;50.25;96308.59;10438462;28;1979;-54
2023/10/02 12:14:44;;;;;;;;;;;;;;;22.66;50.39;96304.13;10435092;28;2005;-54
2023/10/02 12:19:44;;;;;;;;;;;;;;;22.67;50.39;96296.97;10440715;28;2270;-54
2023/10/02 12:24:46;;;;;;;;;;;;;;;22.70;50.36;96301.69;10439762;28;1949;-54
2023/10/02 12:29:47;;;;;;;;;;;;;;;22.70;50.49;96293.78;10443739;28;1981;-56
2023/10/02 12:34:47;;;;;;;;;;;;;;;22.71;50.70;96292.72;10434263;28;2433;-54
2023/10/02 12:39:47;;;;;;;;;;;;;;;22.71;50.38;96288.22;10445314;28;1893;-54
2023/10/02 12:44:48;;;;;;;;;;;;;;;22.71;50.47;96271.59;10436751;28;1843;-56
2023/10/02 12:49:54;;;;;;;;;;;;;;;22.73;50.46;96272.88;10440161;28;1977;-54
2023/10/02 12:54:54;;;;;;;;;;;;;;;22.73;50.40;96267.59;10442513;28;1901;-56
2023/10/02 12:59:54;;;;;;;;;;;;;;;22.74;50.46;96263.09;10439374;28;1921;-56
2023/10/02 13:04:55;;;;;;;;;;;;;;;22.76;50.73;96260.97;10442891;28;2057;-56
2023/10/02 13:09:55;;;;;;;;;;;;;;;22.77;50.46;96257.28;10437716;28;1902;-53
2023/10/02 13:14:55;;;;;;;;;;;;;;;22.76;50.60;96251.19;10440079;28;2015;-53
2023/10/02 13:19:59;;;;;;;;;;;;;;;22.77;50.60;96241.41;10438034;28;2371;-55
2023/10/02 13:24:59;;;;;;;;;;;;;;;22.78;50.85;96232.41;10441195;28;1841;-56
2023/10/02 13:30:01;;;;;;;;;;;;;;;22.79;50.67;96234.78;10435975;28;1976;-56
2023/10/02 13:35:05;;;;;;;;;;;;;;;22.80;50.95;96217.84;10437602;28;1922;-55
2023/10/02 13:40:18;;;;;;;;;;;;;;;22.82;50.85;96221.00;10437346;28;4528;-55
2023/10/02 13:45:21;;;;;;;;;;;;;;;22.82;50.95;96218.38;10439891;28;2177;-55
2023/10/02 13:50:22;;;;;;;;;;;;;;;22.83;50.73;96217.31;10436225;28;1981;-55
2023/10/02 13:55:22;;;;;;;;;;;;;;;22.84;50.54;96210.16;10437789;28;1811;-56
2023/10/02 14:00:26;;;;;;;;;;;;;;;22.84;50.71;96204.88;10441290;28;1885;-56
2023/10/02 14:05:29;;;;;;;;;;;;;;;22.84;50.63;96199.56;10436526;28;2913;-55
2023/10/02 14:10:32;;;;;;;;;;;;;;;22.84;50.53;96194.28;10436736;28;2070;-55
2023/10/02 14:15:34;;;;;;;;;;;;;;;22.84;50.50;96192.44;10436755;28;1847;-55
2023/10/02 14:20:38;;;;;;;;;;;;;;;22.84;50.54;96189.81;10435428;28;1926;-55
2023/10/02 14:25:40;;;;;;;;;;;;;;;22.85;50.87;96190.59;10430414;28;1957;-56
2023/10/02 14:30:41;;;;;;;;;;;;;;;22.85;50.67;96187.97;10435765;28;1906;-56
2023/10/02 14:35:41;;;;;;;;;;;;;;;22.84;50.71;96187.16;10438487;28;1998;-55
2023/10/02 14:40:41;;;;;;;;;;;;;;;22.83;50.68;96185.59;10434075;28;4535;-55
2023/10/02 14:45:43;;;;;;;;;;;;;;;22.83;50.69;96177.66;10435938;28;1885;-53
2023/10/02 14:50:43;;;;;;;;;;;;;;;22.83;50.69;96172.38;10437410;28;2522;-54
2023/10/02 14:55:45;;;;;;;;;;;;;;;22.82;50.80;96170.78;10433517;28;1867;-55
2023/10/02 15:00:47;;;;;;;;;;;;;;;22.83;50.87;96172.38;10439388;28;1834;-55
2023/10/02 15:05:47;;;;;;;;;;;;;;;22.83;50.92;96171.59;10438046;28;1981;-56
2023/10/02 15:10:48;;;;;;;;;;;;;;;22.82;50.85;96172.63;10437298;28;1918;-54
2023/10/02 15:15:48;;;;;;;;;;;;;;;22.83;50.82;96174.22;10437304;28;1997;-55
2023/10/02 15:20:48;;;;;;;;;;;;;;;22.82;50.66;96170.78;10432035;28;1974;-56
2023/10/02 15:25:50;;;;;;;;;;;;;;;22.84;50.66;96170.50;10424775;28;2088;-55
2023/10/02 15:30:53;;;;;;;;;;;;;;;22.83;50.75;96171.59;10427756;28;1995;-53
2023/10/02 15:35:53;;;;;;;;;;;;;;;22.82;51.04;96172.63;10424030;28;2803;-55
2023/10/02 15:40:55;;;;;;;;;;;;;;;22.83;51.22;96166.31;10429160;28;1869;-55
2023/10/02 15:45:58;;;;;;;;;;;;;;;22.82;50.87;96159.41;10438808;28;1823;-55
2023/10/02 15:50:59;;;;;;;;;;;;;;;22.82;50.94;96162.06;10434536;28;2408;-53
2023/10/02 15:56:00;;;;;;;;;;;;;;;22.83;51.26;96156.53;10436430;28;1811;-55
2023/10/02 16:01:00;;;;;;;;;;;;;;;22.82;50.99;96165.50;10431740;28;1891;-56
2023/10/02 16:06:02;;;;;;;;;;;;;;;22.84;51.13;96159.94;10435268;28;2083;-58
2023/10/02 16:11:03;;;;;;;;;;;;;;;22.84;51.41;96154.66;10438124;28;2020;-54
2023/10/02 16:16:03;;;;;;;;;;;;;;;22.85;51.45;96148.31;10433161;28;1830;-55
2023/10/02 16:21:10;;;;;;;;;;;;;;;22.85;51.37;96157.03;10434968;28;2402;-55
2023/10/02 16:26:11;;;;;;;;;;;;;;;22.87;51.41;96156.75;10434607;28;1854;-53
2023/10/02 16:31:15;;;;;;;;;;;;;;;22.87;51.53;96151.47;10435808;28;2157;-53
2023/10/02 16:36:23;;;;;;;;;;;;;;;22.87;51.88;96157.53;10428114;28;1841;-56
2023/10/02 16:41:23;;;;;;;;;;;;;;;22.87;51.52;96154.91;10432802;28;4491;-55
2023/10/02 16:46:24;;;;;;;;;;;;;;;22.87;51.67;96157.53;10434425;28;1889;-56
2023/10/02 16:51:24;;;;;;;;;;;;;;;22.88;51.63;96174.16;10433286;28;1910;-55
2023/10/02 16:56:24;;;;;;;;;;;;;;;22.89;51.67;96167.81;10440514;28;1886;-54
2023/10/02 17:01:25;;;;;;;;;;;;;;;22.88;51.79;96168.88;10435430;28;1873;-54
2023/10/02 17:06:25;;;;;;;;;;;;;;;22.91;51.93;96166.50;10432127;28;2628;-56
2023/10/02 17:11:27;;;;;;;;;;;;;;;22.97;51.59;96167.22;10439188;28;1910;-55
2023/10/02 17:16:27;;;;;;;;;;;;;;;23.14;51.37;96167.59;10416531;28;1882;-56
2023/10/02 17:21:31;;;;;;;;;;;;;;;23.26;51.51;96163.50;10439318;28;1874;-56
2023/10/02 17:26:31;;;;;;;;;;;;;;;23.39;51.46;96170.78;10438166;28;1910;-57
2023/10/02 17:31:31;;;;;;;;;;;;;;;23.48;51.37;96163.03;10421120;28;1972;-58
2023/10/02 17:36:31;;;;;;;;;;;;;;;23.59;51.29;96169.78;10434524;28;1898;-57
2023/10/02 17:41:33;;;;;;;;;;;;;;;23.66;51.54;96164.94;10432023;28;4590;-54
2023/10/02 17:46:34;;;;;;;;;;;;;;;23.72;51.28;96169.09;10434445;28;1898;-56
2023/10/02 17:51:36;;;;;;;;;;;;;;;23.78;51.38;96164.53;10431021;28;2887;-55
2023/10/02 17:56:37;;;;;;;;;;;;;;;23.82;51.24;96173.47;10433930;28;1874;-57
2023/10/02 18:01:37;;;;;;;;;;;;;;;23.84;51.24;96163.41;10432112;28;1910;-58
2023/10/02 18:06:38;;;;;;;;;;;;;;;23.79;51.17;96164.25;10438246;28;1952;-56
2023/10/02 18:11:39;;;;;;;;;;;;;;;23.74;51.31;96161.66;10432438;28;2021;-58
2023/10/02 18:16:41;;;;;;;;;;;;;;;23.69;51.36;96161.72;10433034;28;2165;-58
2023/10/02 18:21:42;;;;;;;;;;;;;;;23.69;51.24;96164.38;10434649;28;2148;-58
2023/10/02 18:26:43;;;;;;;;;;;;;;;23.66;51.45;96156.22;10436778;28;1874;-55
2023/10/02 18:31:44;;;;;;;;;;;;;;;23.61;51.93;96154.41;10435860;28;1902;-55
2023/10/02 18:36:45;;;;;;;;;;;;;;;23.58;52.24;96162.13;10437120;28;3014;-55
2023/10/02 18:41:45;;;;;;;;;;;;;;;23.57;52.37;96156.06;10434095;28;4570;-57
2023/10/02 18:46:46;;;;;;;;;;;;;;;23.56;52.57;96159.75;10439516;28;1771;-56
2023/10/02 18:51:49;;;;;;;;;;;;;;;23.54;52.51;96151.31;10440206;28;1967;-57
2023/10/02 18:56:49;;;;;;;;;;;;;;;23.53;52.33;96157.69;10439136;28;1547;-56
2023/10/02 19:01:49;;;;;;;;;;;;;;;23.51;52.70;96157.19;10438095;28;1740;-54
2023/10/02 19:06:49;;;;;;;;;;;;;;;23.51;52.76;96162.47;10443364;28;1864;-57
2023/10/02 19:11:50;;;;;;;;;;;;;;;23.51;52.50;96169.63;10438396;28;1898;-59
2023/10/02 19:16:50;;;;;;;;;;;;;;;23.49;52.55;96155.88;10448381;28;1783;-57
2023/10/02 19:21:51;;;;;;;;;;;;;;;23.48;52.58;96149.78;10443178;28;2669;-56
2023/10/02 19:26:51;;;;;;;;;;;;;;;23.46;52.44;96151.94;10448319;28;1664;-57
2023/10/02 19:31:51;;;;;;;;;;;;;;;23.47;52.63;96145.59;10441018;28;1977;-57
2023/10/02 19:36:52;;;;;;;;;;;;;;;23.45;52.61;96150.38;10446542;28;1812;-56
2023/10/02 19:41:52;;;;;;;;;;;;;;;23.43;52.68;96144.56;10445599;28;4590;-57
2023/10/02 19:46:52;;;;;;;;;;;;;;;23.44;52.48;96140.84;10439131;28;1543;-55
2023/10/02 19:51:53;;;;;;;;;;;;;;;23.44;52.57;96141.66;10447457;28;1914;-57
2023/10/02 19:56:53;;;;;;;;;;;;;;;23.43;52.51;96131.34;10446211;28;1859;-55
2023/10/02 20:01:55;;;;;;;;;;;;;;;23.40;52.92;96139.84;10445107;28;1865;-55
2023/10/02 20:06:55;;;;;;;;;;;;;;;23.42;52.56;96135.84;10438534;28;3123;-57
2023/10/02 20:11:56;;;;;;;;;;;;;;;23.42;52.84;96121.81;10439313;28;1910;-57
2023/10/02 20:16:56;;;;;;;;;;;;;;;23.38;52.59;96111.03;10438400;28;1863;-57
2023/10/02 20:21:57;;;;;;;;;;;;;;;23.39;52.91;96111.78;10433365;28;1920;-53
2023/10/02 20:26:57;;;;;;;;;;;;;;;23.36;52.93;96113.16;10440533;28;1841;-57
2023/10/02 20:31:58;;;;;;;;;;;;;;;23.32;52.82;96109.50;10437461;28;1910;-56
2023/10/02 20:36:58;;;;;;;;;;;;;;;23.28;52.93;96102.38;10434930;28;2076;-57
2023/10/02 20:41:58;;;;;;;;;;;;;;;23.25;53.11;96108.22;10432851;28;4555;-57
2023/10/02 20:46:59;;;;;;;;;;;;;;;23.22;52.92;96114.09;10436481;28;1855;-55
2023/10/02 20:51:59;;;;;;;;;;;;;;;23.18;52.89;96116.53;10438819;28;2700;-58
2023/10/02 20:56:59;;;;;;;;;;;;;;;23.16;53.02;96117.88;10442823;28;1914;-55
2023/10/02 21:02:00;;;;;;;;;;;;;;;23.14;52.92;96112.84;10438184;28;1940;-56
2023/10/02 21:07:00;;;;;;;;;;;;;;;23.11;53.18;96116.06;10438790;28;1854;-57
2023/10/02 21:12:01;;;;;;;;;;;;;;;23.09;52.84;96101.53;10434934;28;1922;-57
2023/10/02 21:17:01;;;;;;;;;;;;;;;23.08;52.94;96105.25;10439314;28;1883;-57
2023/10/02 21:22:01;;;;;;;;;;;;;;;23.06;52.94;96104.75;10437159;28;2063;-57
2023/10/02 21:27:02;;;;;;;;;;;;;;;23.04;53.07;96093.66;10436616;28;2029;-56
2023/10/02 21:32:02;;;;;;;;;;;;;;;23.03;53.21;96087.59;10437028;28;1971;-58
2023/10/02 21:37:02;;;;;;;;;;;;;;;23.03;53.11;96094.72;10436802;28;2597;-57
2023/10/02 21:42:02;;;;;;;;;;;;;;;23.00;52.93;96088.13;10435520;28;4568;-57
2023/10/02 21:47:03;;;;;;;;;;;;;;;22.99;53.05;96081.28;10436704;28;1874;-57
2023/10/02 21:52:04;;;;;;;;;;;;;;;22.99;53.21;96085.78;10435435;28;2006;-56
2023/10/02 21:57:05;;;;;;;;;;;;;;;22.98;53.00;96082.34;10436591;28;1877;-57
2023/10/02 22:02:05;;;;;;;;;;;;;;;22.98;52.91;96078.94;10434443;28;1854;-57
2023/10/02 22:07:06;;;;;;;;;;;;;;;22.97;53.14;96080.78;10431466;28;1990;-56
2023/10/02 22:12:06;;;;;;;;;;;;;;;22.96;52.98;96073.91;10436839;28;1914;-57
2023/10/02 22:17:11;;;;;;;;;;;;;;;22.97;53.12;96072.06;10432843;28;2132;-55
2023/10/02 22:22:11;;;;;;;;;;;;;;;22.95;53.03;96064.41;10432017;28;2688;-56
2023/10/02 22:27:15;;;;;;;;;;;;;;;22.95;53.01;96058.31;10435950;28;1894;-55
2023/10/02 22:32:15;;;;;;;;;;;;;;;22.95;52.89;96058.31;10433875;28;1938;-59
2023/10/02 22:37:15;;;;;;;;;;;;;;;22.93;53.15;96058.63;10435671;28;1881;-56
2023/10/02 22:42:15;;;;;;;;;;;;;;;22.93;53.27;96049.88;10438607;28;4533;-56
2023/10/02 22:47:18;;;;;;;;;;;;;;;22.93;53.12;96055.19;10448154;28;1898;-55
2023/10/02 22:52:19;;;;;;;;;;;;;;;22.92;53.27;96054.38;10442209;28;1992;-57
2023/10/02 22:57:19;;;;;;;;;;;;;;;22.93;53.13;96049.88;10439719;28;1950;-56
2023/10/02 23:02:20;;;;;;;;;;;;;;;22.92;52.97;96040.38;10446519;28;1898;-56
2023/10/02 23:07:20;;;;;;;;;;;;;;;22.92;52.91;96043.00;10440851;28;2737;-54
2023/10/02 23:12:21;;;;;;;;;;;;;;;22.92;53.13;96054.38;10442362;28;1973;-57
2023/10/02 23:17:21;;;;;;;;;;;;;;;22.90;53.05;96040.66;10445452;28;1897;-56
2023/10/02 23:22:22;;;;;;;;;;;;;;;22.91;53.10;96044.09;10440709;28;1861;-56
2023/10/02 23:27:22;;;;;;;;;;;;;;;22.90;53.01;96029.28;10438578;28;1862;-57
2023/10/02 23:32:24;;;;;;;;;;;;;;;22.89;52.92;96031.16;10438267;28;1990;-57
2023/10/02 23:37:25;;;;;;;;;;;;;;;22.91;53.13;96030.88;10442556;28;1936;-57
2023/10/02 23:42:25;;;;;;;;;;;;;;;22.90;52.93;96029.28;10441591;28;1928;-57
2023/10/02 23:47:26;;;;;;;;;;;;;;;22.89;52.97;96022.44;10442990;28;2008;-56
2023/10/02 23:52:27;;;;;;;;;;;;;;;22.88;53.09;96018.22;10435802;28;2641;-56
2023/10/02 23:57:29;;;;;;;;;;;;;;;22.88;52.87;96021.66;10445491;28;1913;-56
